Startpagina
METAR-TAF:

METAR-TAF

Vliegvelden :

Luchthaven Oslo Gardermoen

Oslo, Noorwegen

breedte: 60-12N, lengte: 011-05E, hoogte: 208 m

Actueel weer

Dit bericht is 6 minuten geleden gemaakt, om 11:20 UTC
Wind 9 kt uit het zuidzuidwesten, variërend tussen het zuiden en het zuidwesten
Temperatuur 7°C
Vochtigheid 81%
Druk 1032 hPa
Zicht 10 km of meer
Gebroken wolken op 1800 ft

METAR: ENGM 161120Z 20009KT 170V230 9999 BKN018 07/04 Q1032

Tijdstip: 12:26 (11:26 UTC)

Verwachting

Verwachting geldig van 16 om 06 UTC tot 17 om 06 UTC
Wind 6 kt uit het zuiden
Zicht 10 km of meer
Verspreide wolken op 1500 ft
Tijdelijke
van 16 om 06 UTC tot 16 om 10 UTC
Gebroken wolken op 1200 ft
Tijdelijke
van 16 om 17 UTC tot 16 om 24 UTC
Gebroken wolken op 1200 ft
Kans 40%
van 17 om 00 UTC tot 17 om 06 UTC
Zicht: 0400 m
op 200 ft
mist

TAF: ENGM 1606/1706 18006KT 9999 SCT015 TEMPO 1606/1610 BKN012 TEMPO 1617/1624 BKN012 PROB40 1700/1706 0400 FG VV002

Waarnemingen en weersverwachtingen van meer dan 4000 vliegvelden (METAR en TAF).

De beschikbare stations zijn de gele en rode punten op de kaart.

Ga met uw muis naar het station om de naam te zien.

Klik dan om waarnemingen en weersverwachtingen te zien.

kaart wijzigen: klik op de groene knoppen met een zwart kruis om in te zoomen, op de groene knop met een streepje om uit te zoomen of op de groene pijlen voor aangrenzende kaarten.


METAR-TAF: